createdAt,value
2023-02-11T00:01:51.752Z,-2.50
2023-02-11T00:04:33.467Z,-2.45
2023-02-11T00:07:03.828Z,-2.54
2023-02-11T00:09:51.528Z,-2.44
2023-02-11T00:12:49.220Z,-2.48
2023-02-11T00:15:16.461Z,-2.51
2023-02-11T00:17:49.958Z,-2.60
2023-02-11T00:20:25.612Z,-2.58
2023-02-11T00:23:02.081Z,-2.57
2023-02-11T00:25:37.468Z,-2.53
2023-02-11T00:28:06.516Z,-2.56
2023-02-11T00:33:19.742Z,-2.44
2023-02-11T00:35:49.239Z,-2.48
2023-02-11T00:41:05.661Z,-2.41
2023-02-11T00:46:18.651Z,-2.45
2023-02-11T00:49:11.081Z,-2.47
2023-02-11T00:54:12.617Z,-2.47
2023-02-11T00:59:35.817Z,-2.38
2023-02-11T01:02:02.844Z,-2.42
2023-02-11T01:04:31.910Z,-2.36
2023-02-11T01:06:59.264Z,-2.43
2023-02-11T01:09:31.674Z,-2.50
2023-02-11T01:12:01.432Z,-2.42
2023-02-11T01:14:35.708Z,-2.46
2023-02-11T01:17:07.261Z,-2.29
2023-02-11T01:19:57.733Z,-2.25
2023-02-11T01:22:28.568Z,-2.12
2023-02-11T01:25:00.386Z,-2.13
2023-02-11T01:27:33.053Z,-2.10
2023-02-11T01:30:14.633Z,-2.19
2023-02-11T01:32:54.645Z,-2.19
2023-02-11T01:38:46.238Z,-2.08
2023-02-11T01:41:37.258Z,-2.09
2023-02-11T01:44:49.037Z,-2.16
2023-02-11T01:47:16.426Z,-2.23
2023-02-11T01:49:59.722Z,-2.24
2023-02-11T01:55:36.867Z,-2.08
2023-02-11T01:58:11.258Z,-2.11
2023-02-11T02:00:49.172Z,-2.20
2023-02-11T02:03:40.915Z,-2.13
2023-02-11T02:06:49.365Z,-2.20
2023-02-11T02:09:33.688Z,-2.10
2023-02-11T02:12:13.269Z,-2.07
2023-02-11T02:14:48.435Z,-2.11
2023-02-11T02:21:09.033Z,-2.08
2023-02-11T02:24:15.616Z,-2.01
2023-02-11T02:30:32.968Z,-2.09
2023-02-11T02:33:28.380Z,-2.09
2023-02-11T02:36:53.606Z,-2.08
2023-02-11T02:39:34.879Z,-2.07
2023-02-11T02:42:16.098Z,-2.01
2023-02-11T02:44:49.747Z,-1.96
2023-02-11T02:47:47.682Z,-1.89
2023-02-11T02:50:48.566Z,-1.81
2023-02-11T02:56:56.497Z,-1.64
2023-02-11T03:02:35.815Z,-1.60
2023-02-11T03:05:46.207Z,-1.60
2023-02-11T03:08:36.008Z,-1.53
2023-02-11T03:11:09.005Z,-1.47
2023-02-11T03:16:25.754Z,-1.45
2023-02-11T03:19:25.691Z,-1.40
2023-02-11T03:22:07.399Z,-1.38
2023-02-11T03:24:51.157Z,-1.39
2023-02-11T03:28:24.764Z,-1.32
2023-02-11T03:31:47.341Z,-1.27
2023-02-11T03:35:05.263Z,-1.21
2023-02-11T03:37:53.733Z,-1.18
2023-02-11T03:40:50.569Z,-1.16
2023-02-11T03:46:12.257Z,-1.11
2023-02-11T03:48:52.511Z,-1.09
2023-02-11T03:51:32.057Z,-1.12
2023-02-11T03:54:12.322Z,-1.12
2023-02-11T03:57:06.907Z,-1.15
2023-02-11T03:59:58.513Z,-1.24
2023-02-11T04:05:29.194Z,-1.12
2023-02-11T04:08:02.989Z,-1.15
2023-02-11T04:10:47.812Z,-1.07
2023-02-11T04:13:15.645Z,-1.06
2023-02-11T04:16:01.860Z,-1.07
2023-02-11T04:19:06.727Z,-1.10
2023-02-11T04:21:46.740Z,-1.17
2023-02-11T04:24:30.872Z,-1.15
2023-02-11T04:27:08.558Z,-1.24
2023-02-11T04:32:06.014Z,-1.11
2023-02-11T04:37:08.526Z,-1.05
2023-02-11T04:39:36.115Z,-1.07
2023-02-11T04:42:03.243Z,-0.97
2023-02-11T04:47:08.778Z,-0.91
2023-02-11T04:52:09.880Z,-0.93
2023-02-11T04:57:19.679Z,-0.94
2023-02-11T04:59:51.151Z,-0.93
2023-02-11T05:02:19.702Z,-0.88
2023-02-11T05:04:47.194Z,-0.81
2023-02-11T05:07:19.885Z,-0.78
2023-02-11T05:09:46.882Z,-0.69
2023-02-11T05:12:14.273Z,-0.67
2023-02-11T05:17:12.486Z,-0.61
2023-02-11T05:19:52.006Z,-0.51
2023-02-11T05:24:50.300Z,-0.50
2023-02-11T05:27:17.126Z,-0.48
2023-02-11T05:32:11.169Z,-0.46
2023-02-11T05:37:10.127Z,-0.39
2023-02-11T05:42:07.834Z,-0.52
2023-02-11T05:44:40.928Z,-0.64
2023-02-11T05:47:10.227Z,-0.80
2023-02-11T05:52:08.461Z,-0.97
2023-02-11T05:54:35.312Z,-0.99
2023-02-11T05:57:05.360Z,-1.02
2023-02-11T05:59:35.300Z,-1.08
2023-02-11T06:02:02.295Z,-1.18
2023-02-11T06:04:28.926Z,-1.17
2023-02-11T06:06:55.492Z,-1.17
2023-02-11T06:09:22.178Z,-1.19
2023-02-11T06:11:48.780Z,-1.28
2023-02-11T06:14:17.193Z,-1.29
2023-02-11T06:19:10.793Z,-1.25
2023-02-11T06:21:43.913Z,-1.24
2023-02-11T06:24:11.649Z,-1.36
2023-02-11T06:26:38.288Z,-1.35
2023-02-11T06:29:04.868Z,-1.37
2023-02-11T06:31:31.598Z,-1.33
2023-02-11T06:33:59.253Z,-1.41
2023-02-11T06:36:25.914Z,-1.40
2023-02-11T06:41:20.704Z,-1.33
2023-02-11T06:43:48.322Z,-1.32
2023-02-11T06:46:15.673Z,-1.32
2023-02-11T06:51:10.602Z,-1.35
2023-02-11T06:53:40.698Z,-1.33
2023-02-11T06:56:09.846Z,-1.28
2023-02-11T07:01:11.891Z,-1.18
2023-02-11T07:06:08.127Z,-1.06
2023-02-11T07:08:36.132Z,-1.04
2023-02-11T07:11:09.909Z,-1.01
2023-02-11T07:13:36.589Z,-0.98
2023-02-11T07:16:12.013Z,-0.85
2023-02-11T07:18:39.286Z,-0.68
2023-02-11T07:21:07.429Z,-0.57
2023-02-11T07:23:35.710Z,-0.46
2023-02-11T07:26:13.616Z,-0.36
2023-02-11T07:28:41.121Z,-0.29
2023-02-11T07:31:13.874Z,-0.20
2023-02-11T07:33:41.169Z,-0.14
2023-02-11T07:36:11.764Z,-0.11
2023-02-11T07:38:38.729Z,-0.08
2023-02-11T07:41:08.223Z,0.02
2023-02-11T07:43:35.633Z,0.10
2023-02-11T07:46:09.505Z,0.12
2023-02-11T07:48:38.280Z,0.16
2023-02-11T07:51:09.401Z,0.19
2023-02-11T07:53:36.576Z,0.13
2023-02-11T07:56:04.892Z,0.16
2023-02-11T07:58:31.818Z,0.27
2023-02-11T08:01:06.505Z,0.37
2023-02-11T08:03:34.639Z,0.51
2023-02-11T08:06:12.882Z,0.63
2023-02-11T08:08:40.110Z,0.69
2023-02-11T08:11:12.184Z,0.80
2023-02-11T08:13:39.310Z,0.85
2023-02-11T08:16:07.223Z,0.95
2023-02-11T08:18:34.889Z,1.04
2023-02-11T08:21:09.590Z,1.16
2023-02-11T08:23:37.484Z,1.22
2023-02-11T08:26:06.075Z,1.43
2023-02-11T08:28:36.341Z,1.48
2023-02-11T08:31:16.230Z,1.60
2023-02-11T08:33:43.397Z,1.64
2023-02-11T08:36:18.558Z,1.68
2023-02-11T08:38:45.462Z,1.73
2023-02-11T08:41:14.916Z,1.78
2023-02-11T08:43:45.489Z,1.87
2023-02-11T08:46:16.258Z,1.95
2023-02-11T08:48:43.615Z,2.06
2023-02-11T08:51:14.606Z,2.16
2023-02-11T08:53:41.368Z,2.22
2023-02-11T08:56:12.880Z,2.26
2023-02-11T08:58:40.629Z,2.27
2023-02-11T09:01:16.413Z,2.34
2023-02-11T09:03:43.126Z,2.51
2023-02-11T09:06:10.879Z,2.65
2023-02-11T09:08:39.480Z,2.76
2023-02-11T09:11:06.362Z,2.96
2023-02-11T09:13:33.494Z,3.18
2023-02-11T09:18:28.546Z,3.53
2023-02-11T09:21:06.436Z,3.60
2023-02-11T09:23:36.187Z,3.64
2023-02-11T09:26:17.109Z,3.69
2023-02-11T09:28:45.037Z,3.77
2023-02-11T09:31:14.847Z,3.90
2023-02-11T09:33:47.708Z,4.07
2023-02-11T09:36:20.736Z,4.25
2023-02-11T09:38:48.015Z,4.31
2023-02-11T09:41:29.446Z,4.31
2023-02-11T09:43:59.076Z,4.31
2023-02-11T09:46:27.691Z,4.40
2023-02-11T09:51:35.761Z,4.54
2023-02-11T09:54:15.436Z,4.62
2023-02-11T09:56:44.841Z,4.61
2023-02-11T09:59:16.226Z,4.81
2023-02-11T10:05:06.667Z,4.91
2023-02-11T10:10:22.668Z,4.87
2023-02-11T10:13:12.152Z,4.81
2023-02-11T10:16:03.781Z,4.98
2023-02-11T10:18:48.959Z,5.25
2023-02-11T10:21:36.942Z,5.40
2023-02-11T10:24:10.001Z,5.29
2023-02-11T10:26:38.537Z,5.59
2023-02-11T10:29:34.041Z,5.74
2023-02-11T10:32:07.410Z,5.93
2023-02-11T10:34:39.799Z,6.11
2023-02-11T10:37:10.286Z,5.78
2023-02-11T10:39:40.008Z,5.86
2023-02-11T10:42:15.078Z,5.82
2023-02-11T10:47:28.833Z,5.83
2023-02-11T10:49:55.988Z,5.60
2023-02-11T10:52:25.440Z,5.66
2023-02-11T11:00:20.320Z,5.96
2023-02-11T11:02:54.810Z,5.94
2023-02-11T11:05:48.669Z,6.35
2023-02-11T11:08:16.131Z,6.63
2023-02-11T11:10:47.684Z,6.39
2023-02-11T11:13:33.061Z,6.27
2023-02-11T11:16:18.065Z,6.23
2023-02-11T11:18:47.359Z,6.30
2023-02-11T11:21:29.023Z,5.96
2023-02-11T11:24:00.590Z,5.94
2023-02-11T11:26:50.201Z,6.08
2023-02-11T11:29:21.666Z,6.11
2023-02-11T11:31:54.613Z,6.20
2023-02-11T11:34:35.053Z,5.73
2023-02-11T11:42:31.001Z,6.16
2023-02-11T11:45:04.689Z,5.97
2023-02-11T11:47:43.550Z,6.05
2023-02-11T11:50:50.579Z,6.20
2023-02-11T11:53:33.316Z,6.11
2023-02-11T11:56:09.090Z,6.26
2023-02-11T11:58:39.431Z,6.42
2023-02-11T12:01:21.491Z,6.46
2023-02-11T12:04:17.478Z,6.44
2023-02-11T12:07:08.925Z,6.46
2023-02-11T12:10:06.975Z,6.18
2023-02-11T12:12:49.545Z,5.88
2023-02-11T12:15:34.508Z,6.03
2023-02-11T12:18:08.834Z,6.10
2023-02-11T12:21:14.536Z,5.78
2023-02-11T12:24:01.298Z,5.97
2023-02-11T12:29:42.136Z,6.17
2023-02-11T12:32:27.603Z,6.27
2023-02-11T12:35:32.657Z,6.51
2023-02-11T12:38:27.919Z,6.80
2023-02-11T12:41:39.887Z,6.80
2023-02-11T12:44:13.226Z,6.79
2023-02-11T12:47:01.874Z,6.48
2023-02-11T12:49:46.352Z,6.45
2023-02-11T12:52:56.890Z,6.08
2023-02-11T12:55:37.234Z,6.14
2023-02-11T12:58:25.412Z,6.09
2023-02-11T13:01:05.759Z,6.05
2023-02-11T13:03:43.494Z,6.02
2023-02-11T13:06:18.501Z,5.82
2023-02-11T13:14:35.329Z,5.61
2023-02-11T13:17:24.688Z,5.69
2023-02-11T13:19:59.739Z,5.87
2023-02-11T13:22:44.668Z,5.81
2023-02-11T13:25:45.638Z,5.84
2023-02-11T13:28:24.220Z,5.62
2023-02-11T13:33:47.454Z,5.80
2023-02-11T13:36:33.499Z,5.85
2023-02-11T13:39:03.778Z,5.99
2023-02-11T13:41:50.927Z,6.06
2023-02-11T13:44:27.959Z,6.12
2023-02-11T13:47:06.931Z,6.16
2023-02-11T13:49:49.689Z,5.97
2023-02-11T13:52:45.515Z,5.96
2023-02-11T13:55:27.530Z,5.92
2023-02-11T13:58:06.245Z,5.85
2023-02-11T14:00:52.203Z,5.81
2023-02-11T14:04:33.520Z,5.66
2023-02-11T14:07:48.646Z,5.93
2023-02-11T14:10:43.477Z,5.77
2023-02-11T14:13:37.230Z,5.94
2023-02-11T14:16:17.082Z,5.91
2023-02-11T14:18:47.504Z,5.87
2023-02-11T14:21:25.905Z,5.81
2023-02-11T14:26:55.646Z,5.79
2023-02-11T14:29:36.819Z,6.02
2023-02-11T14:32:21.939Z,6.03
2023-02-11T14:35:31.522Z,6.05
2023-02-11T14:38:12.822Z,6.05
2023-02-11T14:41:06.939Z,5.73
2023-02-11T14:43:50.372Z,5.69
2023-02-11T14:46:20.221Z,5.72
2023-02-11T14:48:50.828Z,5.53
2023-02-11T14:51:28.125Z,5.54
2023-02-11T14:54:09.505Z,5.57
2023-02-11T14:56:37.056Z,5.48
2023-02-11T14:59:24.790Z,5.45
2023-02-11T15:01:59.316Z,5.39
2023-02-11T15:04:34.696Z,5.43
2023-02-11T15:07:09.555Z,5.55
2023-02-11T15:09:42.802Z,5.54
2023-02-11T15:12:44.659Z,5.67
2023-02-11T15:15:34.831Z,5.68
2023-02-11T15:18:04.395Z,5.54
2023-02-11T15:20:34.618Z,5.61
2023-02-11T15:28:25.651Z,5.63
2023-02-11T15:31:13.284Z,5.64
2023-02-11T15:33:40.937Z,5.69
2023-02-11T15:36:21.483Z,5.63
2023-02-11T15:39:32.634Z,5.71
2023-02-11T15:42:34.073Z,5.71
2023-02-11T15:50:41.571Z,5.72
2023-02-11T15:53:47.775Z,5.70
2023-02-11T15:56:25.639Z,5.65
2023-02-11T15:58:57.543Z,5.67
2023-02-11T16:01:40.964Z,5.67
2023-02-11T16:04:18.032Z,5.69
2023-02-11T16:06:53.722Z,5.67
2023-02-11T16:09:26.760Z,5.63
2023-02-11T16:14:34.825Z,5.62
2023-02-11T16:17:15.635Z,5.53
2023-02-11T16:19:48.850Z,5.54
2023-02-11T16:22:23.162Z,5.48
2023-02-11T16:24:53.280Z,5.50
2023-02-11T16:27:31.750Z,5.47
2023-02-11T16:32:55.643Z,5.42
2023-02-11T16:35:25.729Z,5.44
2023-02-11T16:37:52.597Z,5.39
2023-02-11T16:40:19.619Z,5.37
2023-02-11T16:42:46.706Z,5.34
2023-02-11T16:45:16.198Z,5.32
2023-02-11T16:47:47.590Z,5.34
2023-02-11T16:50:31.664Z,5.33
2023-02-11T16:53:02.325Z,5.36
2023-02-11T16:55:29.179Z,5.40
2023-02-11T16:57:58.505Z,5.40
2023-02-11T17:00:27.919Z,5.39
2023-02-11T17:02:57.617Z,5.38
2023-02-11T17:05:30.208Z,5.34
2023-02-11T17:08:03.773Z,5.33
2023-02-11T17:10:55.922Z,5.32
2023-02-11T17:13:27.300Z,5.27
2023-02-11T17:16:12.602Z,5.25
2023-02-11T17:27:54.790Z,5.14
2023-02-11T17:30:49.623Z,5.11
2023-02-11T17:33:22.079Z,5.16
2023-02-11T17:35:48.984Z,5.14
2023-02-11T17:38:16.216Z,5.09
2023-02-11T17:40:45.202Z,5.07
2023-02-11T17:43:12.014Z,5.11
2023-02-11T17:45:44.818Z,5.04
2023-02-11T17:48:11.893Z,5.06
2023-02-11T17:50:41.432Z,5.08
2023-02-11T17:55:35.834Z,5.06
2023-02-11T17:58:05.782Z,5.01
2023-02-11T18:00:35.567Z,5.06
2023-02-11T18:05:41.221Z,5.10
2023-02-11T18:08:10.537Z,5.04
2023-02-11T18:10:38.187Z,5.00
2023-02-11T18:13:05.269Z,5.04
2023-02-11T18:15:33.678Z,5.02
2023-02-11T18:18:00.677Z,4.95
2023-02-11T18:20:27.584Z,5.03
2023-02-11T18:22:54.456Z,5.09
2023-02-11T18:25:22.413Z,5.09
2023-02-11T18:27:49.130Z,4.98
2023-02-11T18:30:19.450Z,4.99
2023-02-11T18:32:46.171Z,4.96
2023-02-11T18:35:15.912Z,4.96
2023-02-11T18:37:43.071Z,5.07
2023-02-11T18:40:11.993Z,5.04
2023-02-11T18:42:39.229Z,5.05
2023-02-11T18:45:09.479Z,5.01
2023-02-11T18:47:37.891Z,5.01
2023-02-11T18:52:48.185Z,5.09
2023-02-11T18:55:17.079Z,5.09
2023-02-11T18:57:43.851Z,5.10
2023-02-11T19:00:11.163Z,5.11
2023-02-11T19:02:44.598Z,5.14
2023-02-11T19:05:11.515Z,5.18
2023-02-11T19:07:38.332Z,5.10
2023-02-11T19:12:33.444Z,5.12
2023-02-11T19:15:00.878Z,5.12
2023-02-11T19:17:32.467Z,5.08
2023-02-11T19:20:00.053Z,5.08
2023-02-11T19:22:27.079Z,5.15
2023-02-11T19:24:54.057Z,5.05
2023-02-11T19:27:24.865Z,5.05
2023-02-11T19:29:57.793Z,5.11
2023-02-11T19:32:28.275Z,5.07
2023-02-11T19:35:00.675Z,5.03
2023-02-11T19:37:27.824Z,5.07
2023-02-11T19:39:58.939Z,5.08
2023-02-11T19:42:30.673Z,5.07
2023-02-11T19:45:00.712Z,5.05
2023-02-11T19:47:28.050Z,5.10
2023-02-11T19:49:57.637Z,5.11
2023-02-11T19:52:24.660Z,5.14
2023-02-11T19:54:54.168Z,5.12
2023-02-11T19:57:29.327Z,5.06
2023-02-11T19:59:59.456Z,5.03
2023-02-11T20:02:29.533Z,5.05
2023-02-11T20:04:59.636Z,4.97
2023-02-11T20:07:30.416Z,5.01
2023-02-11T20:09:59.534Z,4.98
2023-02-11T20:12:26.354Z,4.92
2023-02-11T20:14:55.261Z,4.95
2023-02-11T20:17:23.503Z,4.86
2023-02-11T20:19:50.589Z,4.83
2023-02-11T20:22:17.543Z,4.78
2023-02-11T20:24:44.917Z,4.75
2023-02-11T20:27:14.279Z,4.73
2023-02-11T20:29:42.217Z,4.71
2023-02-11T20:32:11.550Z,4.63
2023-02-11T20:34:38.640Z,4.74
2023-02-11T20:39:40.960Z,4.71
2023-02-11T20:42:11.861Z,4.71
2023-02-11T20:59:21.211Z,4.76
2023-02-11T21:01:50.791Z,4.79
2023-02-11T21:09:25.336Z,4.82
2023-02-11T21:14:22.303Z,4.86
2023-02-11T21:16:49.593Z,4.85
2023-02-11T21:19:17.031Z,4.80
2023-02-11T21:21:44.623Z,4.81
2023-02-11T21:24:12.098Z,4.83
2023-02-11T21:26:39.547Z,4.89
2023-02-11T21:31:36.030Z,4.92
2023-02-11T21:34:03.342Z,4.92
2023-02-11T21:36:30.371Z,4.90
2023-02-11T21:38:57.671Z,4.86
2023-02-11T21:41:25.000Z,4.93
2023-02-11T21:43:52.589Z,4.93
2023-02-11T21:46:20.699Z,4.92
2023-02-11T21:48:48.389Z,4.96
2023-02-11T21:51:26.104Z,4.93
2023-02-11T21:53:57.101Z,4.83
2023-02-11T21:56:26.331Z,4.83
2023-02-11T21:58:54.725Z,4.84
2023-02-11T22:01:31.014Z,4.81
2023-02-11T22:06:33.797Z,4.74
2023-02-11T22:11:35.725Z,4.72
2023-02-11T22:14:02.937Z,4.69
2023-02-11T22:16:30.695Z,4.70
2023-02-11T22:18:58.719Z,4.72
2023-02-11T22:21:26.296Z,4.80
2023-02-11T22:23:54.707Z,4.78
2023-02-11T22:26:25.952Z,4.80
2023-02-11T22:28:53.734Z,4.78
2023-02-11T22:31:23.925Z,4.77
2023-02-11T22:33:51.034Z,4.75
2023-02-11T22:36:23.867Z,4.72
2023-02-11T22:38:54.241Z,4.74
2023-02-11T22:41:23.180Z,4.62
2023-02-11T22:43:50.201Z,4.58
2023-02-11T22:46:19.591Z,4.64
2023-02-11T22:48:48.984Z,4.63
2023-02-11T22:51:19.507Z,4.66
2023-02-11T22:53:55.015Z,4.71
2023-02-11T22:56:22.044Z,4.71
2023-02-11T22:58:50.070Z,4.74
2023-02-11T23:01:17.491Z,4.75
2023-02-11T23:03:45.191Z,4.70
2023-02-11T23:06:12.553Z,4.61
2023-02-11T23:08:43.232Z,4.53
2023-02-11T23:11:16.658Z,4.52
2023-02-11T23:13:46.198Z,4.54
2023-02-11T23:16:17.215Z,4.50
2023-02-11T23:18:47.666Z,4.41
2023-02-11T23:21:17.776Z,4.30
2023-02-11T23:23:45.473Z,4.27
2023-02-11T23:26:14.283Z,4.30
2023-02-11T23:28:41.914Z,4.33
2023-02-11T23:31:29.264Z,4.32
2023-02-11T23:33:56.750Z,4.26
2023-02-11T23:36:25.969Z,4.27
2023-02-11T23:38:52.668Z,4.31
2023-02-11T23:41:20.171Z,4.35
2023-02-11T23:43:54.817Z,4.44
2023-02-11T23:46:23.341Z,4.45
2023-02-11T23:48:51.301Z,4.49
2023-02-11T23:51:19.076Z,4.50
2023-02-11T23:53:46.251Z,4.42
2023-02-11T23:56:22.900Z,4.41
2023-02-11T23:58:52.046Z,4.43
